Time;durP1;ratioP1;P1;durP2;ratioP2;P2;SDS_P1;SDS_P2;PMS_P1;PMS_P2;Temp;Humidity;BMP_temperature;BMP_pressure;BME280_temperature;BME280_humidity;BME280_pressure;Samples;Min_cycle;Max_cycle;Signal;HPM_P1;HPM_P2
2022/10/22 00:01:50;;;;;;;;;5.67;5.67;;;;;-147.17;100.00;-15917.19;5008057;27;51643;-45
2022/10/22 00:04:16;;;;;;;;;5.00;4.00;;;;;-147.17;100.00;-15917.19;5000430;27;52717;-45
2022/10/22 00:06:43;;;;;;;;;5.00;5.00;;;;;-147.17;100.00;-15917.19;5000218;27;51975;-45
2022/10/22 00:09:10;;;;;;;;;4.33;4.00;;;;;-147.17;100.00;-15917.19;4997134;27;52604;-46
2022/10/22 00:11:36;;;;;;;;;4.67;4.00;;;;;-147.17;100.00;-15917.19;5007034;28;51440;-47
2022/10/22 00:14:05;;;;;;;;;6.00;5.00;;;;;-147.17;100.00;-15917.19;5007846;28;53126;-45
2022/10/22 00:16:30;;;;;;;;;4.33;4.00;;;;;-147.17;100.00;-15917.19;5001049;28;51256;-42
2022/10/22 00:18:55;;;;;;;;;4.00;3.00;;;;;-147.17;100.00;-15917.19;4994125;28;51228;-43
2022/10/22 00:21:21;;;;;;;;;6.33;6.00;;;;;-147.17;100.00;-15917.19;5002093;27;51256;-42
2022/10/22 00:23:46;;;;;;;;;4.67;4.33;;;;;-147.17;100.00;-15917.19;5007974;27;51066;-42
2022/10/22 00:26:12;;;;;;;;;7.33;6.00;;;;;-147.17;100.00;-15917.19;4995537;27;51317;-42
2022/10/22 00:28:37;;;;;;;;;3.00;2.00;;;;;-147.17;100.00;-15917.19;5002260;28;51267;-43
2022/10/22 00:31:04;;;;;;;;;4.33;4.33;;;;;-147.17;100.00;-15917.19;5000054;27;51242;-43
2022/10/22 00:33:30;;;;;;;;;4.33;4.00;;;;;-147.17;100.00;-15917.19;4999510;27;51194;-43
2022/10/22 00:35:55;;;;;;;;;3.00;3.00;;;;;-147.17;100.00;-15917.19;5002012;27;51283;-43
2022/10/22 00:38:20;;;;;;;;;4.00;4.00;;;;;-147.17;100.00;-15917.19;5005614;28;51173;-42
2022/10/22 00:40:46;;;;;;;;;6.67;6.00;;;;;-147.17;100.00;-15917.19;4996432;27;51481;-42
2022/10/22 00:43:18;;;;;;;;;5.00;4.00;;;;;-147.17;100.00;-15917.19;5068230;27;51178;-43
2022/10/22 00:45:44;;;;;;;;;8.33;7.67;;;;;-147.17;100.00;-15917.19;4992060;27;51229;-42
2022/10/22 00:48:13;;;;;;;;;3.00;2.00;;;;;-147.17;100.00;-15917.19;5000846;27;52516;-42
2022/10/22 00:50:39;;;;;;;;;4.00;3.67;;;;;-147.17;100.00;-15917.19;5003430;28;50904;-43
2022/10/22 00:53:09;;;;;;;;;3.67;2.67;;;;;-147.17;100.00;-15917.19;4997430;28;51082;-41
2022/10/22 00:55:36;;;;;;;;;2.00;2.00;;;;;-147.17;100.00;-15917.19;5006181;28;51134;-41
2022/10/22 00:58:02;;;;;;;;;2.67;2.67;;;;;-147.17;100.00;-15917.19;4997938;28;51104;-41
2022/10/22 01:00:28;;;;;;;;;4.00;3.00;;;;;-147.17;100.00;-15917.19;5072910;27;51134;-41
2022/10/22 01:02:54;;;;;;;;;3.33;3.00;;;;;-147.17;100.00;-15917.19;5008974;27;51025;-42
2022/10/22 01:05:20;;;;;;;;;2.67;2.67;;;;;-147.17;100.00;-15917.19;4991591;28;51003;-42
2022/10/22 01:07:51;;;;;;;;;4.00;4.00;;;;;-147.17;100.00;-15917.19;5006052;27;51132;-42
2022/10/22 01:10:42;;;;;;;;;3.00;2.67;;;;;-147.17;100.00;-15917.19;4991711;28;51205;-42
2022/10/22 01:13:32;;;;;;;;;3.00;3.00;;;;;-147.17;100.00;-15917.19;4995628;27;51840;-42
2022/10/22 01:16:01;;;;;;;;;3.00;2.00;;;;;-147.17;100.00;-15917.19;5003370;28;51110;-41
2022/10/22 01:18:32;;;;;;;;;3.33;3.33;;;;;-147.17;100.00;-15917.19;5003710;27;51237;-41
2022/10/22 01:21:44;;;;;;;;;3.00;2.00;;;;;-147.17;100.00;-15917.19;4994321;27;51161;-41
2022/10/22 01:24:38;;;;;;;;;5.33;3.67;;;;;-147.17;100.00;-15917.19;5013842;27;51973;-42
2022/10/22 01:27:28;;;;;;;;;3.00;3.00;;;;;-147.17;100.00;-15917.19;5001073;28;51078;-42
2022/10/22 01:29:59;;;;;;;;;7.00;5.00;;;;;-147.17;100.00;-15917.19;4999779;27;51355;-42
2022/10/22 01:32:28;;;;;;;;;2.00;2.00;;;;;-147.17;100.00;-15917.19;5003773;27;51843;-42
2022/10/22 01:34:59;;;;;;;;;2.33;2.00;;;;;-147.17;100.00;-15917.19;5000494;27;51978;-42
2022/10/22 01:37:29;;;;;;;;;3.00;2.00;;;;;-147.17;100.00;-15917.19;4996085;27;51133;-41
2022/10/22 01:39:57;;;;;;;;;1.67;1.67;;;;;-147.17;100.00;-15917.19;5005260;27;51211;-41
2022/10/22 01:42:23;;;;;;;;;1.67;1.67;;;;;-147.17;100.00;-15917.19;5006157;27;51166;-43
2022/10/22 01:44:49;;;;;;;;;2.33;2.00;;;;;-147.17;100.00;-15917.19;5007276;27;51818;-42
2022/10/22 01:47:19;;;;;;;;;2.67;2.00;;;;;-147.17;100.00;-15917.19;4998976;27;51259;-42
2022/10/22 01:50:01;;;;;;;;;2.67;2.67;;;;;-147.17;100.00;-15917.19;5005117;27;51054;-42
2022/10/22 01:52:45;;;;;;;;;2.00;2.00;;;;;-147.17;100.00;-15917.19;5003950;28;51059;-41
2022/10/22 01:55:38;;;;;;;;;4.67;4.67;;;;;-147.17;100.00;-15917.19;5073098;27;52842;-42
2022/10/22 01:58:09;;;;;;;;;1.33;1.00;;;;;-147.17;100.00;-15917.19;4995615;27;51108;-42
2022/10/22 02:00:38;;;;;;;;;1.67;1.67;;;;;-147.17;100.00;-15917.19;5002666;27;51211;-41
2022/10/22 02:03:14;;;;;;;;;2.00;2.00;;;;;-147.17;100.00;-15917.19;4999197;27;51474;-42
2022/10/22 02:05:47;;;;;;;;;2.00;2.00;;;;;-147.17;100.00;-15917.19;4995961;27;51150;-43
2022/10/22 02:08:27;;;;;;;;;3.33;3.33;;;;;-147.17;100.00;-15917.19;4995116;27;51190;-42
2022/10/22 02:10:54;;;;;;;;;2.67;2.00;;;;;-147.17;100.00;-15917.19;5002378;28;51150;-42
2022/10/22 02:13:54;;;;;;;;;2.67;2.00;;;;;-147.17;100.00;-15917.19;5008358;28;51082;-42
2022/10/22 02:16:30;;;;;;;;;4.00;3.00;;;;;-147.17;100.00;-15917.19;5039369;27;52087;-42
2022/10/22 02:18:58;;;;;;;;;2.00;2.00;;;;;-147.17;100.00;-15917.19;5002183;28;51213;-43
2022/10/22 02:21:25;;;;;;;;;1.00;1.00;;;;;-147.17;100.00;-15917.19;5001229;27;51694;-43
2022/10/22 02:23:50;;;;;;;;;1.33;1.33;;;;;-147.17;100.00;-15917.19;4999431;28;51320;-43
2022/10/22 02:26:28;;;;;;;;;2.33;2.00;;;;;-147.17;100.00;-15917.19;4998083;28;51906;-43
2022/10/22 02:29:05;;;;;;;;;3.33;3.33;;;;;-147.17;100.00;-15917.19;5000400;28;51181;-42
2022/10/22 02:31:36;;;;;;;;;3.33;3.00;;;;;-147.17;100.00;-15917.19;5004688;27;51115;-43
2022/10/22 02:34:09;;;;;;;;;1.00;1.00;;;;;-147.17;100.00;-15917.19;5076890;27;51145;-43
2022/10/22 02:36:36;;;;;;;;;3.00;2.00;;;;;-147.17;100.00;-15917.19;5004781;27;51253;-43
2022/10/22 02:39:02;;;;;;;;;1.67;1.67;;;;;-147.17;100.00;-15917.19;5067055;27;51118;-43
2022/10/22 02:41:27;;;;;;;;;1.00;1.00;;;;;-147.17;100.00;-15917.19;5070537;27;51179;-42
2022/10/22 02:43:54;;;;;;;;;2.00;1.00;;;;;-147.17;100.00;-15917.19;4999329;27;51288;-42
2022/10/22 02:46:20;;;;;;;;;2.00;2.00;;;;;-147.17;100.00;-15917.19;5003219;27;51790;-43
2022/10/22 02:48:45;;;;;;;;;1.33;1.33;;;;;-147.17;100.00;-15917.19;5008101;27;51279;-41
2022/10/22 02:51:10;;;;;;;;;2.67;2.00;;;;;-147.17;100.00;-15917.19;4999100;28;51274;-41
2022/10/22 02:53:36;;;;;;;;;3.00;2.67;;;;;-147.17;100.00;-15917.19;5001299;27;51621;-42
2022/10/22 02:56:01;;;;;;;;;3.00;3.00;;;;;-147.17;100.00;-15917.19;4999475;27;51799;-42
2022/10/22 02:58:26;;;;;;;;;2.33;2.00;;;;;-147.17;100.00;-15917.19;5003700;28;51135;-41
2022/10/22 03:00:52;;;;;;;;;3.00;2.33;;;;;-147.17;100.00;-15917.19;4995485;28;51153;-41
2022/10/22 03:03:17;;;;;;;;;2.00;2.00;;;;;-147.17;100.00;-15917.19;5059693;27;51603;-41
2022/10/22 03:05:42;;;;;;;;;2.33;2.00;;;;;-147.17;100.00;-15917.19;4999856;27;51630;-42
2022/10/22 03:08:08;;;;;;;;;2.00;2.00;;;;;-147.17;100.00;-15917.19;5007337;27;51918;-43
2022/10/22 03:10:33;;;;;;;;;2.67;2.67;;;;;-147.17;100.00;-15917.19;5005293;27;51063;-42
2022/10/22 03:12:59;;;;;;;;;2.33;2.00;;;;;-147.17;100.00;-15917.19;5060841;27;51273;-42
2022/10/22 03:15:25;;;;;;;;;1.33;1.00;;;;;-147.17;100.00;-15917.19;5002574;28;53077;-42
2022/10/22 03:17:50;;;;;;;;;2.33;2.00;;;;;-147.17;100.00;-15917.19;4998210;27;51157;-42
2022/10/22 03:20:15;;;;;;;;;3.00;3.00;;;;;-147.17;100.00;-15917.19;5000545;28;51336;-42
2022/10/22 03:22:42;;;;;;;;;4.33;3.00;;;;;-147.17;100.00;-15917.19;5060420;28;51236;-42
2022/10/22 03:25:12;;;;;;;;;2.00;1.00;;;;;-147.17;100.00;-15917.19;4995213;27;51854;-42
2022/10/22 03:27:40;;;;;;;;;2.33;2.33;;;;;-147.17;100.00;-15917.19;5005574;28;51102;-42
2022/10/22 03:30:06;;;;;;;;;3.00;1.00;;;;;-147.17;100.00;-15917.19;5001116;27;51380;-43
2022/10/22 03:32:32;;;;;;;;;1.67;1.67;;;;;-147.17;100.00;-15917.19;5000714;27;50940;-42
2022/10/22 03:34:57;;;;;;;;;2.00;2.00;;;;;-147.17;100.00;-15917.19;4997052;27;52906;-43
2022/10/22 03:37:24;;;;;;;;;2.00;2.00;;;;;-147.17;100.00;-15917.19;5067977;27;51210;-42
2022/10/22 03:39:50;;;;;;;;;2.00;2.00;;;;;-147.17;100.00;-15917.19;5004304;27;51168;-43
2022/10/22 03:42:16;;;;;;;;;2.00;2.00;;;;;-147.17;100.00;-15917.19;5071779;27;51378;-43
2022/10/22 03:44:43;;;;;;;;;4.33;2.33;;;;;-147.17;100.00;-15917.19;4995838;27;51892;-43
2022/10/22 03:47:08;;;;;;;;;1.00;1.00;;;;;-147.17;100.00;-15917.19;4994566;27;52721;-42
2022/10/22 03:49:34;;;;;;;;;2.00;2.00;;;;;-147.17;100.00;-15917.19;5000549;28;51034;-43
2022/10/22 03:52:07;;;;;;;;;1.67;1.67;;;;;-147.17;100.00;-15917.19;4994968;27;51369;-43
2022/10/22 03:54:32;;;;;;;;;2.00;1.00;;;;;-147.17;100.00;-15917.19;4999396;27;53460;-42
2022/10/22 03:56:57;;;;;;;;;2.00;2.00;;;;;-147.17;100.00;-15917.19;5004685;27;51259;-42
2022/10/22 03:59:23;;;;;;;;;3.00;3.00;;;;;-147.17;100.00;-15917.19;5007888;28;51245;-42
2022/10/22 04:01:48;;;;;;;;;1.00;1.00;;;;;-147.17;100.00;-15917.19;4995528;28;51404;-42
2022/10/22 04:04:13;;;;;;;;;1.67;1.33;;;;;-147.17;100.00;-15917.19;4993795;28;51160;-42
2022/10/22 04:06:39;;;;;;;;;3.33;2.00;;;;;-147.17;100.00;-15917.19;5001238;28;51047;-42
2022/10/22 04:09:04;;;;;;;;;2.00;2.00;;;;;-147.17;100.00;-15917.19;4998789;28;51177;-43
2022/10/22 04:11:29;;;;;;;;;3.00;2.00;;;;;-147.17;100.00;-15917.19;5005139;28;51059;-41
2022/10/22 04:13:55;;;;;;;;;0.67;0.67;;;;;-147.17;100.00;-15917.19;5005019;27;51586;-42
2022/10/22 04:16:21;;;;;;;;;2.00;2.00;;;;;-147.17;100.00;-15917.19;5069237;27;51099;-42
2022/10/22 04:18:48;;;;;;;;;2.00;2.00;;;;;-147.17;100.00;-15917.19;5000418;27;51733;-42
2022/10/22 04:21:16;;;;;;;;;3.00;3.00;;;;;-147.17;100.00;-15917.19;5008847;27;50924;-42
2022/10/22 04:23:50;;;;;;;;;1.33;1.00;;;;;-147.17;100.00;-15917.19;4992314;27;52890;-42
2022/10/22 04:26:17;;;;;;;;;2.67;2.67;;;;;-147.17;100.00;-15917.19;4997967;27;51044;-42
2022/10/22 04:28:43;;;;;;;;;2.00;2.00;;;;;-147.17;100.00;-15917.19;5000435;28;50948;-42
2022/10/22 04:31:11;;;;;;;;;2.00;2.00;;;;;-147.17;100.00;-15917.19;5000878;28;51382;-42
2022/10/22 04:33:36;;;;;;;;;3.00;2.00;;;;;-147.17;100.00;-15917.19;4998172;27;51831;-43
2022/10/22 04:36:10;;;;;;;;;2.00;1.33;;;;;-147.17;100.00;-15917.19;4995554;27;51212;-42
2022/10/22 04:38:40;;;;;;;;;2.67;2.67;;;;;-147.17;100.00;-15917.19;5069858;27;50917;-43
2022/10/22 04:41:13;;;;;;;;;3.00;3.00;;;;;-147.17;100.00;-15917.19;5003352;27;51164;-41
2022/10/22 04:43:39;;;;;;;;;3.67;3.00;;;;;-147.17;100.00;-15917.19;5004292;27;51723;-42
2022/10/22 04:46:07;;;;;;;;;2.00;2.00;;;;;-147.17;100.00;-15917.19;4997494;27;51316;-42
2022/10/22 04:48:33;;;;;;;;;2.00;1.67;;;;;-147.17;100.00;-15917.19;4995205;27;51095;-42
2022/10/22 04:50:59;;;;;;;;;2.33;1.67;;;;;-147.17;100.00;-15917.19;5005206;27;51356;-42
2022/10/22 04:53:25;;;;;;;;;3.00;3.00;;;;;-147.17;100.00;-15917.19;5006090;28;51866;-42
2022/10/22 04:55:50;;;;;;;;;2.33;2.33;;;;;-147.17;100.00;-15917.19;4999085;27;51073;-42
2022/10/22 04:58:16;;;;;;;;;3.33;2.33;;;;;-147.17;100.00;-15917.19;4994602;27;51284;-42
2022/10/22 05:00:41;;;;;;;;;2.33;2.00;;;;;-147.17;100.00;-15917.19;5002521;28;51396;-41
2022/10/22 05:03:06;;;;;;;;;2.33;2.00;;;;;-147.17;100.00;-15917.19;5000208;27;53713;-42
2022/10/22 05:05:32;;;;;;;;;2.00;2.00;;;;;-147.17;100.00;-15917.19;5076739;27;51173;-43
2022/10/22 05:07:57;;;;;;;;;2.00;1.67;;;;;-147.17;100.00;-15917.19;5006056;28;52030;-42
2022/10/22 05:10:22;;;;;;;;;4.00;3.00;;;;;-147.17;100.00;-15917.19;5014392;28;51199;-42
2022/10/22 05:12:48;;;;;;;;;3.33;3.00;;;;;-147.17;100.00;-15917.19;5011598;27;51862;-43
2022/10/22 05:15:13;;;;;;;;;2.00;2.00;;;;;-147.17;100.00;-15917.19;5004897;28;51221;-43
2022/10/22 05:17:38;;;;;;;;;2.33;2.33;;;;;-147.17;100.00;-15917.19;5003315;27;51219;-43
2022/10/22 05:20:04;;;;;;;;;4.00;3.67;;;;;-147.17;100.00;-15917.19;5005483;27;51507;-43
2022/10/22 05:22:29;;;;;;;;;2.00;2.00;;;;;-147.17;100.00;-15917.19;5004561;28;51949;-43
2022/10/22 05:24:55;;;;;;;;;2.67;2.33;;;;;-147.17;100.00;-15917.19;5007017;28;51706;-42
2022/10/22 05:27:20;;;;;;;;;4.00;4.00;;;;;-147.17;100.00;-15917.19;5062616;27;51027;-42
2022/10/22 05:29:46;;;;;;;;;3.00;3.00;;;;;-147.17;100.00;-15917.19;5013487;28;51236;-42
2022/10/22 05:32:11;;;;;;;;;3.00;3.00;;;;;-147.17;100.00;-15917.19;5001756;27;52788;-43
2022/10/22 05:34:36;;;;;;;;;4.33;2.33;;;;;-147.17;100.00;-15917.19;5002925;28;51230;-43
2022/10/22 05:37:02;;;;;;;;;5.00;3.00;;;;;-147.17;100.00;-15917.19;5006838;28;51295;-43
2022/10/22 05:39:27;;;;;;;;;4.33;4.00;;;;;-147.17;100.00;-15917.19;5068393;27;51154;-42
2022/10/22 05:41:52;;;;;;;;;5.00;4.00;;;;;-147.17;100.00;-15917.19;5008221;27;51019;-42
2022/10/22 05:44:18;;;;;;;;;4.00;3.00;;;;;-147.17;100.00;-15917.19;5003962;27;51085;-42
2022/10/22 05:46:44;;;;;;;;;3.33;2.33;;;;;-147.17;100.00;-15917.19;5005288;28;51122;-42
2022/10/22 05:49:14;;;;;;;;;3.33;2.67;;;;;-147.17;100.00;-15917.19;5000713;27;51167;-42
2022/10/22 05:51:39;;;;;;;;;2.00;2.00;;;;;-147.17;100.00;-15917.19;5007746;27;51135;-42
2022/10/22 05:54:06;;;;;;;;;3.33;3.00;;;;;-147.17;100.00;-15917.19;4995725;28;51230;-42
2022/10/22 05:56:33;;;;;;;;;3.00;3.00;;;;;-147.17;100.00;-15917.19;4998406;27;51266;-42
2022/10/22 05:58:59;;;;;;;;;3.33;3.00;;;;;-147.17;100.00;-15917.19;4988873;28;51130;-43
2022/10/22 06:01:27;;;;;;;;;3.00;3.00;;;;;-147.17;100.00;-15917.19;5005765;28;53899;-43
2022/10/22 06:03:58;;;;;;;;;3.00;3.00;;;;;-147.17;100.00;-15917.19;5007170;28;51006;-41
2022/10/22 06:06:29;;;;;;;;;4.00;2.00;;;;;-147.17;100.00;-15917.19;5005657;27;51330;-41
2022/10/22 06:08:58;;;;;;;;;4.00;3.00;;;;;-147.17;100.00;-15917.19;5007068;27;51141;-43
2022/10/22 06:11:23;;;;;;;;;3.00;2.33;;;;;-147.17;100.00;-15917.19;5008248;27;51120;-43
2022/10/22 06:13:50;;;;;;;;;3.00;3.00;;;;;-147.17;100.00;-15917.19;4993327;27;51161;-43
2022/10/22 06:16:16;;;;;;;;;3.00;3.00;;;;;-147.17;100.00;-15917.19;5001003;28;51222;-43
2022/10/22 06:18:41;;;;;;;;;4.00;3.00;;;;;-147.17;100.00;-15917.19;5008330;27;51236;-42
2022/10/22 06:21:09;;;;;;;;;3.33;3.00;;;;;-147.17;100.00;-15917.19;4999502;27;51608;-44
2022/10/22 06:23:35;;;;;;;;;3.00;3.00;;;;;-147.17;100.00;-15917.19;5000598;28;51121;-42
2022/10/22 06:26:01;;;;;;;;;3.33;3.00;;;;;-147.17;100.00;-15917.19;4994434;28;51162;-42
2022/10/22 06:28:27;;;;;;;;;5.00;4.67;;;;;-147.17;100.00;-15917.19;4991613;28;51289;-42
2022/10/22 06:30:52;;;;;;;;;5.00;4.00;;;;;-147.17;100.00;-15917.19;5026865;27;51823;-42
2022/10/22 06:33:18;;;;;;;;;5.00;3.00;;;;;-147.17;100.00;-15917.19;5002209;28;51079;-42
2022/10/22 06:35:44;;;;;;;;;4.00;4.00;;;;;-147.17;100.00;-15917.19;5007374;27;52307;-42
2022/10/22 06:38:09;;;;;;;;;4.00;3.00;;;;;-147.17;100.00;-15917.19;5007876;27;51061;-43
2022/10/22 06:40:35;;;;;;;;;2.00;2.00;;;;;-147.17;100.00;-15917.19;5009142;28;51041;-43
2022/10/22 06:43:01;;;;;;;;;3.00;2.00;;;;;-147.17;100.00;-15917.19;5003606;27;51313;-42
2022/10/22 06:45:26;;;;;;;;;3.33;3.33;;;;;-147.17;100.00;-15917.19;4997853;27;51183;-42
2022/10/22 06:47:52;;;;;;;;;3.00;3.00;;;;;-147.17;100.00;-15917.19;4998747;27;51224;-42
2022/10/22 06:50:17;;;;;;;;;4.00;3.67;;;;;-147.17;100.00;-15917.19;5000533;28;51888;-42
2022/10/22 06:52:43;;;;;;;;;3.00;3.00;;;;;-147.17;100.00;-15917.19;5002685;28;51028;-42
2022/10/22 06:55:09;;;;;;;;;4.00;4.00;;;;;-147.17;100.00;-15917.19;5008442;27;51282;-42
2022/10/22 06:57:34;;;;;;;;;4.33;4.33;;;;;-147.17;100.00;-15917.19;5078609;27;51109;-42
2022/10/22 06:59:59;;;;;;;;;4.00;4.00;;;;;-147.17;100.00;-15917.19;5002136;28;51631;-42
2022/10/22 07:02:25;;;;;;;;;3.33;3.33;;;;;-147.17;100.00;-15917.19;5002838;27;50984;-42
2022/10/22 07:04:50;;;;;;;;;3.33;3.00;;;;;-147.17;100.00;-15917.19;5008484;28;51312;-42
2022/10/22 07:07:15;;;;;;;;;4.00;3.00;;;;;-147.17;100.00;-15917.19;5007177;28;51239;-42
2022/10/22 07:09:44;;;;;;;;;7.00;7.00;;;;;-147.17;100.00;-15917.19;5006131;28;51275;-42
2022/10/22 07:12:09;;;;;;;;;9.00;5.33;;;;;-147.17;100.00;-15917.19;4996417;28;51163;-43
2022/10/22 07:14:35;;;;;;;;;8.00;4.33;;;;;-147.17;100.00;-15917.19;4999760;28;51169;-43
2022/10/22 07:17:01;;;;;;;;;5.00;3.33;;;;;-147.17;100.00;-15917.19;5009403;28;51160;-42
2022/10/22 07:19:26;;;;;;;;;3.00;3.00;;;;;-147.17;100.00;-15917.19;5055840;27;51371;-42
2022/10/22 07:21:51;;;;;;;;;4.00;3.00;;;;;-147.17;100.00;-15917.19;5004413;28;50922;-42
2022/10/22 07:24:17;;;;;;;;;3.33;3.33;;;;;-147.17;100.00;-15917.19;4998011;27;51055;-42
2022/10/22 07:26:42;;;;;;;;;4.00;3.00;;;;;-147.17;100.00;-15917.19;5058545;27;51214;-41
2022/10/22 07:29:08;;;;;;;;;6.00;6.00;;;;;-147.17;100.00;-15917.19;5002254;27;51617;-42
2022/10/22 07:31:34;;;;;;;;;4.00;4.00;;;;;-147.17;100.00;-15917.19;4999424;28;51210;-43
2022/10/22 07:33:59;;;;;;;;;4.33;4.33;;;;;-147.17;100.00;-15917.19;4995487;27;51040;-41
2022/10/22 07:36:25;;;;;;;;;4.00;4.00;;;;;-147.17;100.00;-15917.19;4999153;27;51332;-41
2022/10/22 07:38:56;;;;;;;;;3.00;3.00;;;;;-147.17;100.00;-15917.19;4999450;27;52257;-41
2022/10/22 07:41:22;;;;;;;;;5.33;4.00;;;;;-147.17;100.00;-15917.19;5003630;27;51322;-41
2022/10/22 07:43:48;;;;;;;;;4.33;4.33;;;;;-147.17;100.00;-15917.19;4999819;27;50967;-42
2022/10/22 07:46:13;;;;;;;;;3.00;3.00;;;;;-147.17;100.00;-15917.19;4990400;27;50857;-43
2022/10/22 07:48:39;;;;;;;;;8.33;5.67;;;;;-147.17;100.00;-15917.19;4993241;27;51825;-42
2022/10/22 07:51:04;;;;;;;;;6.67;6.67;;;;;-147.17;100.00;-15917.19;5062820;27;51014;-42
2022/10/22 07:53:30;;;;;;;;;4.33;3.00;;;;;-147.17;100.00;-15917.19;4993029;27;51282;-42
2022/10/22 07:55:55;;;;;;;;;2.67;2.67;;;;;-147.17;100.00;-15917.19;5003825;27;51164;-42
2022/10/22 07:58:21;;;;;;;;;3.67;3.67;;;;;-147.17;100.00;-15668.00;4997736;27;52451;-42
2022/10/22 08:00:48;;;;;;;;;2.33;2.33;;;;;-147.17;100.00;-9221.53;5005022;27;51941;-43
2022/10/22 08:03:14;;;;;;;;;4.67;4.00;;;;;-147.17;100.00;468.50;5009729;27;50985;-42
2022/10/22 08:05:43;;;;;;;;;8.67;8.00;;;;;-147.17;100.00;5447.22;4992742;28;50980;-42
2022/10/22 08:08:11;;;;;;;;;4.00;4.00;;;;;-147.17;100.00;10981.91;5002030;27;52027;-42
2022/10/22 08:10:36;;;;;;;;;4.33;3.33;;;;;-147.17;100.00;21523.94;5000657;28;51369;-42
2022/10/22 08:13:02;;;;;;;;;3.00;3.00;;;;;-147.17;100.00;25747.19;5011277;27;51110;-42
2022/10/22 08:15:28;;;;;;;;;4.00;4.00;;;;;-147.17;100.00;31355.91;5008835;28;51273;-44
2022/10/22 08:17:53;;;;;;;;;3.33;3.33;;;;;-147.17;100.00;32349.28;5005188;27;52079;-42
2022/10/22 08:20:19;;;;;;;;;4.33;4.33;;;;;-147.17;100.00;31342.19;5004008;27;51222;-42
2022/10/22 08:22:44;;;;;;;;;3.33;3.33;;;;;-147.17;100.00;-5936.03;5068433;27;51094;-44
2022/10/22 08:25:10;;;;;;;;;2.33;2.33;;;;;-147.17;100.00;-13894.75;5001572;28;51135;-42
2022/10/22 08:27:36;;;;;;;;;3.00;3.00;;;;;-147.17;100.00;14920.59;4996033;27;51720;-43
2022/10/22 08:30:03;;;;;;;;;3.33;3.33;;;;;-147.17;100.00;11878.50;4998662;28;51318;-42
2022/10/22 08:32:29;;;;;;;;;2.33;2.33;;;;;-147.17;100.00;-13449.38;5064703;27;51280;-43
2022/10/22 08:34:54;;;;;;;;;3.00;2.33;;;;;-147.17;100.00;-15917.19;5056745;28;51284;-43
2022/10/22 08:37:20;;;;;;;;;3.33;2.33;;;;;-147.17;100.00;-15917.19;5003585;28;51784;-43
2022/10/22 08:39:45;;;;;;;;;2.67;2.00;;;;;-147.17;100.00;-15917.19;5001101;27;51324;-42
2022/10/22 08:42:31;;;;;;;;;1.33;1.33;;;;;-147.17;100.00;-15917.19;4999666;27;51118;-43
2022/10/22 08:45:15;;;;;;;;;3.00;1.33;;;;;-147.17;100.00;-15917.19;4991437;27;51149;-42
2022/10/22 08:48:07;;;;;;;;;3.00;1.00;;;;;-147.17;100.00;-15917.19;4989699;28;52300;-43
2022/10/22 08:50:39;;;;;;;;;1.00;1.00;;;;;-147.17;100.00;-15917.19;4989317;27;51039;-42
2022/10/22 08:53:21;;;;;;;;;0.00;0.00;;;;;-147.17;100.00;-15917.19;4999790;28;50902;-43
2022/10/22 08:55:48;;;;;;;;;1.00;1.00;;;;;-147.17;100.00;-15917.19;4995679;27;51253;-43
2022/10/22 08:58:49;;;;;;;;;2.00;1.67;;;;;-147.17;100.00;-15917.19;5000986;28;52118;-43
2022/10/22 09:01:22;;;;;;;;;5.00;4.00;;;;;-147.17;100.00;-15917.19;4996674;27;51104;-48
2022/10/22 09:03:59;;;;;;;;;3.00;2.00;;;;;-147.17;100.00;-15917.19;5010908;27;51193;-43
2022/10/22 09:06:28;;;;;;;;;3.00;2.00;;;;;-147.17;100.00;-15917.19;5000134;27;51847;-44
2022/10/22 09:08:56;;;;;;;;;2.33;2.00;;;;;-147.17;100.00;-15917.19;5001541;27;51933;-43
2022/10/22 09:11:30;;;;;;;;;1.00;1.00;;;;;-147.17;100.00;-15917.19;4999123;28;50838;-42
2022/10/22 09:13:57;;;;;;;;;2.00;2.00;;;;;-147.17;100.00;-15917.19;4994662;27;51112;-42
2022/10/22 09:16:34;;;;;;;;;2.00;1.67;;;;;-147.17;100.00;-15917.19;5004812;27;51184;-43
2022/10/22 09:19:34;;;;;;;;;4.33;3.67;;;;;-147.17;100.00;-15917.19;5007171;27;52785;-43
2022/10/22 09:22:10;;;;;;;;;5.00;4.00;;;;;-147.17;100.00;-15917.19;4995433;27;51003;-43
2022/10/22 09:24:44;;;;;;;;;2.00;2.00;;;;;-147.17;100.00;-15917.19;5000520;27;50909;-43
2022/10/22 09:27:19;;;;;;;;;2.00;1.67;;;;;-147.17;100.00;-15917.19;5002791;28;51364;-44
2022/10/22 09:29:47;;;;;;;;;2.00;2.00;;;;;-147.17;100.00;-15917.19;4994237;28;51709;-44
2022/10/22 09:32:14;;;;;;;;;2.00;1.00;;;;;-147.17;100.00;-15917.19;5004355;28;51468;-44
2022/10/22 09:34:39;;;;;;;;;1.67;1.67;;;;;-147.17;100.00;-15915.72;4989000;28;51050;-46
2022/10/22 09:37:08;;;;;;;;;1.00;1.00;;;;;-147.17;100.00;-15915.72;4992352;28;51029;-45
2022/10/22 09:39:43;;;;;;;;;2.33;2.33;;;;;-147.17;100.00;-15172.50;4993417;28;52899;-45
2022/10/22 09:42:13;;;;;;;;;2.00;1.67;;;;;-147.17;100.00;-15172.50;5000634;27;51256;-45
2022/10/22 09:44:38;;;;;;;;;2.00;2.00;;;;;-147.17;100.00;-14676.94;4990045;27;51363;-45
2022/10/22 09:47:05;;;;;;;;;1.00;1.00;;;;;-147.17;100.00;-14429.16;4997271;27;53892;-46
2022/10/22 09:49:34;;;;;;;;;3.00;2.00;;;;;-147.17;100.00;-14181.31;4995749;27;51974;-46
2022/10/22 09:52:01;;;;;;;;;7.33;7.33;;;;;-147.17;100.00;-14181.31;5006662;27;51176;-46
2022/10/22 09:54:41;;;;;;;;;2.67;2.67;;;;;-147.17;100.00;-13933.50;5001633;27;51425;-46
2022/10/22 09:57:09;;;;;;;;;2.33;2.33;;;;;-147.17;100.00;-12941.97;4994665;27;51478;-46
2022/10/22 09:59:40;;;;;;;;;4.00;2.00;;;;;-147.17;100.00;-12198.19;4998806;28;51260;-46
2022/10/22 10:02:13;;;;;;;;;2.33;2.33;;;;;-147.17;100.00;-11702.25;5010555;27;51104;-48
2022/10/22 10:04:52;;;;;;;;;5.33;5.00;;;;;-147.17;100.00;-12446.13;4998310;28;51148;-58
2022/10/22 10:07:23;;;;;;;;;5.33;5.00;;;;;-147.17;100.00;-12446.13;4995578;28;51275;-57
2022/10/22 10:09:50;;;;;;;;;3.00;2.67;;;;;-147.17;100.00;-11206.22;4999518;27;53077;-56
2022/10/22 10:12:51;;;;;;;;;3.33;2.00;;;;;-147.17;100.00;-11702.25;5002269;27;51164;-57
2022/10/22 10:15:37;;;;;;;;;4.33;4.33;;;;;-147.17;100.00;-12446.13;5009042;28;51052;-57
2022/10/22 10:18:11;;;;;;;;;3.00;3.00;;;;;-147.17;100.00;-11702.25;4989773;28;51224;-57
2022/10/22 10:20:37;;;;;;;;;1.00;1.00;;;;;-147.17;100.00;-12941.97;5064586;27;52152;-57
2022/10/22 10:23:28;;;;;;;;;3.00;3.00;;;;;-147.17;100.00;-12446.13;4995461;28;51350;-56
2022/10/22 10:26:22;;;;;;;;;5.00;5.00;;;;;-147.17;100.00;-10710.16;4998028;28;51450;-57
2022/10/22 10:29:00;;;;;;;;;2.00;2.00;;;;;-147.17;100.00;-10958.19;5060409;27;52477;-57
2022/10/22 10:31:40;;;;;;;;;2.00;2.00;;;;;-147.17;100.00;-8725.22;4987184;27;52822;-57
2022/10/22 10:34:06;;;;;;;;;4.67;4.33;;;;;-147.17;100.00;-6987.56;4988391;27;51736;-56
2022/10/22 10:36:57;;;;;;;;;3.00;2.67;;;;;-147.17;100.00;-8725.22;4988233;27;51250;-56
2022/10/22 10:39:26;;;;;;;;;4.67;4.00;;;;;-147.17;100.00;-8228.81;4989095;27;52152;-57
2022/10/22 10:42:16;;;;;;;;;3.33;3.00;;;;;-147.17;100.00;-10462.09;4998567;27;51306;-58
2022/10/22 10:44:45;;;;;;;;;3.00;2.00;;;;;-147.17;100.00;-10710.16;4993440;27;51220;-58
2022/10/22 10:48:13;;;;;;;;;3.33;2.33;;;;;-147.17;100.00;-9965.91;5081863;27;51253;-58
2022/10/22 10:51:05;;;;;;;;;2.00;2.00;;;;;-147.17;100.00;-9717.81;5019568;28;51277;-58
2022/10/22 10:53:54;;;;;;;;;2.00;2.00;;;;;-147.17;100.00;-6987.56;5062455;27;52074;-58
2022/10/22 10:56:25;;;;;;;;;4.00;3.00;;;;;-147.17;100.00;-6987.56;4995869;27;51208;-62
2022/10/22 10:59:15;;;;;;;;;2.00;2.00;;;;;-147.17;100.00;-6242.59;4996514;27;51298;-58
2022/10/22 11:01:49;;;;;;;;;3.33;3.33;;;;;-147.17;100.00;-6739.25;4998560;27;51152;-58
2022/10/22 11:04:32;;;;;;;;;4.67;2.33;;;;;-147.17;100.00;-5994.25;4999508;27;51785;-54
2022/10/22 11:07:04;;;;;;;;;3.33;3.33;;;;;-147.17;100.00;-4752.25;5005679;27;51156;-54
2022/10/22 11:09:43;;;;;;;;;6.00;5.00;;;;;-147.17;100.00;-4006.88;4998947;27;51445;-44
2022/10/22 11:12:18;;;;;;;;;5.33;3.67;;;;;-147.17;100.00;-2515.66;4998800;27;51159;-45
2022/10/22 11:15:16;;;;;;;;;3.00;3.00;;;;;-147.17;100.00;-3012.78;5016170;27;52724;-45